Time;durP1;ratioP1;P1;durP2;ratioP2;P2;SDS_P1;SDS_P2;PMS_P1;PMS_P2;Temp;Humidity;BMP_temperature;BMP_pressure;BME280_temperature;BME280_humidity;BME280_pressure;Samples;Min_cycle;Max_cycle;Signal;HPM_P1;HPM_P2
2021/08/10 00:02:16;;;;;;;10.20;5.53;;;;;;;16.81;66.86;100617.50;2059350;84;29687;-59
2021/08/10 00:05:18;;;;;;;16.30;6.30;;;;;;;16.84;66.91;100622.70;2105733;84;27651;-59
2021/08/10 00:08:21;;;;;;;14.07;5.90;;;;;;;16.86;66.84;100626.17;2044912;86;29549;-58
2021/08/10 00:11:23;;;;;;;10.23;5.60;;;;;;;16.89;66.91;100623.72;2095660;84;31036;-58
2021/08/10 00:14:26;;;;;;;8.80;6.15;;;;;;;16.91;66.86;100625.84;2074948;85;34157;-58
2021/08/10 00:17:28;;;;;;;9.00;5.40;;;;;;;16.92;66.91;100624.86;2075463;85;29336;-58
2021/08/10 00:20:30;;;;;;;12.07;5.62;;;;;;;16.91;66.94;100614.13;2077304;85;27640;-58
2021/08/10 00:23:32;;;;;;;10.32;5.25;;;;;;;16.90;67.09;100620.05;2100119;84;30759;-58
2021/08/10 00:26:34;;;;;;;11.38;5.45;;;;;;;16.90;67.09;100620.05;2035622;86;32258;-59
2021/08/10 00:29:36;;;;;;;9.48;5.83;;;;;;;16.90;66.95;100617.80;2066972;84;34176;-58
2021/08/10 00:32:38;;;;;;;12.18;5.85;;;;;;;16.85;66.86;100616.31;2077502;85;30562;-59
2021/08/10 00:35:40;;;;;;;12.00;5.00;;;;;;;16.78;66.75;100617.71;2086580;84;28036;-58
2021/08/10 00:38:42;;;;;;;13.18;5.62;;;;;;;16.78;66.75;100617.71;2086526;85;29930;-59
2021/08/10 00:41:44;;;;;;;9.53;5.30;;;;;;;16.76;66.80;100622.86;2085107;84;32364;-60
2021/08/10 00:44:45;;;;;;;10.00;5.60;;;;;;;16.74;66.83;100626.16;2086512;85;33371;-59
2021/08/10 00:47:48;;;;;;;10.08;5.42;;;;;;;16.70;66.97;100619.61;2079825;85;30128;-59
2021/08/10 00:50:49;;;;;;;14.13;5.55;;;;;;;16.69;67.10;100617.02;2053040;86;28311;-59
2021/08/10 00:53:51;;;;;;;11.93;4.83;;;;;;;16.66;67.05;100615.38;2054709;84;29038;-60
2021/08/10 00:56:54;;;;;;;10.63;5.28;;;;;;;16.63;67.08;100608.83;2056587;86;31080;-58
2021/08/10 00:59:58;;;;;;;8.33;5.00;;;;;;;16.60;67.13;100609.53;2055435;86;34429;-59
2021/08/10 01:02:59;;;;;;;8.75;5.37;;;;;;;16.57;67.13;100610.63;2062726;85;29334;-58
2021/08/10 01:06:09;;;;;;;11.53;5.37;;;;;;;16.52;67.10;100607.38;2090960;85;27710;-58
2021/08/10 01:09:22;;;;;;;7.55;5.03;;;;;;;16.48;67.20;100612.14;2091445;84;29014;-57
2021/08/10 01:12:34;;;;;;;9.58;5.30;;;;;;;16.46;67.35;100611.38;2090877;84;31016;-58
2021/08/10 01:15:45;;;;;;;9.40;4.87;;;;;;;16.42;67.39;100609.84;2089722;84;32931;-59
2021/08/10 01:19:17;;;;;;;10.32;4.92;;;;;;;16.41;67.68;100610.81;2091295;84;30266;-59
2021/08/10 01:22:21;;;;;;;14.15;6.47;;;;;;;16.40;68.05;100605.03;2090489;84;27639;-58
2021/08/10 01:25:55;;;;;;;9.55;4.75;;;;;;;16.41;68.08;100610.81;2089465;85;28916;-59
2021/08/10 01:29:05;;;;;;;7.67;5.15;;;;;;;16.43;68.19;100611.58;2095161;84;31071;-58
2021/08/10 01:32:07;;;;;;;7.00;5.20;;;;;;;16.46;68.27;100612.73;2093274;84;33158;-59
2021/08/10 01:35:09;;;;;;;7.92;5.15;;;;;;;16.48;68.34;100609.91;2082656;85;30190;-60
2021/08/10 01:38:11;;;;;;;10.05;6.00;;;;;;;16.49;68.42;100609.81;2082402;85;28285;-59
2021/08/10 01:41:13;;;;;;;10.48;5.55;;;;;;;16.51;68.36;100613.75;2082441;85;29919;-59
2021/08/10 01:44:16;;;;;;;10.03;5.95;;;;;;;16.50;68.32;100612.90;2090584;85;31694;-61
2021/08/10 01:47:19;;;;;;;16.67;5.37;;;;;;;16.49;68.20;100618.40;2090768;85;33350;-60
2021/08/10 01:50:23;;;;;;;10.68;6.42;;;;;;;16.48;68.31;100613.95;2090713;85;30482;-60
2021/08/10 01:53:25;;;;;;;11.45;5.72;;;;;;;16.44;68.22;100608.41;2090609;85;28161;-60
2021/08/10 01:56:29;;;;;;;8.80;5.33;;;;;;;16.37;68.28;100610.67;2090783;85;29584;-61
2021/08/10 01:59:31;;;;;;;11.20;5.22;;;;;;;16.32;68.32;100611.47;2090883;85;31138;-61
2021/08/10 02:02:33;;;;;;;12.37;5.45;;;;;;;16.25;68.50;100597.52;2089460;85;34157;-60
2021/08/10 02:05:36;;;;;;;9.38;5.35;;;;;;;16.17;68.46;100601.20;2087906;85;29706;-60
2021/08/10 02:08:39;;;;;;;8.33;5.47;;;;;;;16.09;68.65;100599.91;2088004;85;27639;-61
2021/08/10 02:11:41;;;;;;;8.88;5.00;;;;;;;16.01;68.58;100598.20;2086914;85;28728;-60
2021/08/10 02:14:45;;;;;;;13.68;4.95;;;;;;;15.92;68.61;100590.73;2082555;85;31473;-60
2021/08/10 02:17:48;;;;;;;8.68;6.33;;;;;;;15.85;68.78;100593.42;2082508;85;33020;-59
2021/08/10 02:20:52;;;;;;;15.10;5.75;;;;;;;15.79;68.69;100594.23;2040545;85;29450;-60
2021/08/10 02:24:08;;;;;;;8.03;5.53;;;;;;;15.72;69.01;100594.75;2088076;85;27699;-61
2021/08/10 02:27:17;;;;;;;12.40;5.78;;;;;;;15.65;68.86;100585.70;2087995;85;29879;-61
2021/08/10 02:30:27;;;;;;;12.10;5.45;;;;;;;15.58;69.10;100576.75;2090405;83;31025;-60
2021/08/10 02:33:30;;;;;;;8.60;4.80;;;;;;;15.52;69.32;100580.73;2062506;86;33375;-61
2021/08/10 02:36:36;;;;;;;10.45;5.47;;;;;;;15.44;69.37;100574.48;2137147;83;30183;-61
2021/08/10 02:39:38;;;;;;;8.90;5.20;;;;;;;15.40;69.54;100575.65;2123730;83;27631;-61
2021/08/10 02:42:43;;;;;;;8.20;5.45;;;;;;;15.35;69.52;100576.42;2101021;84;30751;-60
2021/08/10 02:45:45;;;;;;;7.47;5.25;;;;;;;15.30;69.74;100578.58;2101632;84;31023;-61
2021/08/10 02:48:47;;;;;;;7.78;5.20;;;;;;;15.25;69.62;100582.05;2101619;83;34214;-62
2021/08/10 02:51:48;;;;;;;10.35;5.65;;;;;;;15.19;69.55;100586.87;2101066;84;30509;-61
2021/08/10 02:54:57;;;;;;;11.63;5.65;;;;;;;15.15;69.75;100584.47;2101409;84;28188;-61
2021/08/10 02:58:11;;;;;;;10.93;4.83;;;;;;;15.08;69.93;100586.70;2100697;84;28883;-61
2021/08/10 03:01:16;;;;;;;8.88;5.47;;;;;;;15.02;69.93;100583.03;2116988;83;32166;-60
2021/08/10 03:04:20;;;;;;;;;;;;;;;14.97;70.05;100583.83;2053046;86;33091;-62
2021/08/10 03:07:25;;;;;;;9.95;5.10;;;;;;;14.91;70.36;100579.66;2102724;84;30585;-61
2021/08/10 03:10:33;;;;;;;11.28;5.67;;;;;;;14.85;70.45;100584.12;2096463;84;27687;-60
2021/08/10 03:13:40;;;;;;;9.80;5.65;;;;;;;14.78;70.30;100586.34;2083066;85;29879;-61
2021/08/10 03:16:53;;;;;;;10.28;5.30;;;;;;;14.73;70.69;100586.60;2061571;85;32378;-61
2021/08/10 03:19:57;;;;;;;7.60;5.00;;;;;;;14.70;70.58;100588.17;2086854;84;33086;-61
2021/08/10 03:23:00;;;;;;;9.90;5.20;;;;;;;14.65;70.54;100585.31;2099219;84;29326;-60
2021/08/10 03:26:04;;;;;;;11.18;5.70;;;;;;;14.62;70.58;100586.88;2050430;86;27708;-61
2021/08/10 03:29:07;;;;;;;8.15;4.87;;;;;;;14.59;70.62;100585.22;2096913;84;28747;-60
2021/08/10 03:32:12;;;;;;;9.68;5.70;;;;;;;14.55;70.67;100586.39;2060964;86;30895;-60
2021/08/10 03:35:15;;;;;;;11.90;5.30;;;;;;;14.51;70.86;100578.95;2042371;86;33082;-60
2021/08/10 03:38:19;;;;;;;8.95;4.70;;;;;;;14.49;70.93;100579.53;2060517;86;30233;-61
2021/08/10 03:41:24;;;;;;;8.28;5.45;;;;;;;14.47;71.07;100575.20;2086192;84;27663;-59
2021/08/10 03:44:25;;;;;;;;;;;;;;;14.46;71.10;100576.16;2068282;85;28658;-60
2021/08/10 03:47:28;;;;;;;8.45;5.55;;;;;;;14.44;71.25;100570.38;2089520;85;31371;-60
2021/08/10 03:50:31;;;;;;;11.18;5.65;;;;;;;14.44;71.32;100573.58;2094132;83;32980;-60
2021/08/10 03:53:34;;;;;;;9.33;5.80;;;;;;;14.43;71.43;100570.00;2097117;83;29374;-60
2021/08/10 03:56:38;;;;;;;9.50;5.58;;;;;;;14.44;71.43;100569.03;2097000;84;27735;-61
2021/08/10 03:59:41;;;;;;;9.78;5.35;;;;;;;14.47;71.56;100567.11;2104635;83;29564;-60
2021/08/10 04:02:45;;;;;;;10.35;5.53;;;;;;;14.50;71.76;100568.28;2020382;86;31845;-61
2021/08/10 04:05:50;;;;;;;20.35;10.13;;;;;;;14.54;71.99;100570.69;2038645;86;33076;-61
2021/08/10 04:08:52;;;;;;;15.38;6.03;;;;;;;14.59;72.24;100569.92;2035428;87;29169;-61
2021/08/10 04:11:55;;;;;;;10.30;5.70;;;;;;;14.63;72.49;100566.55;2047558;86;27610;-61
2021/08/10 04:14:57;;;;;;;12.25;6.83;;;;;;;14.67;72.85;100560.01;2054701;86;28735;-61
2021/08/10 04:18:02;;;;;;;11.20;5.90;;;;;;;14.71;72.73;100564.75;2061509;84;31481;-60
2021/08/10 04:21:08;;;;;;;12.15;6.60;;;;;;;14.74;72.65;100555.13;2100566;84;34010;-60
2021/08/10 04:24:14;;;;;;;9.90;5.50;;;;;;;14.80;72.67;100552.05;2050516;86;29331;-62
2021/08/10 04:27:22;;;;;;;8.95;5.50;;;;;;;14.89;72.59;100547.91;2073753;84;27720;-63
2021/08/10 04:30:31;;;;;;;12.18;6.37;;;;;;;14.99;72.65;100541.41;2080885;85;27785;-61
2021/08/10 04:33:38;;;;;;;11.55;5.97;;;;;;;15.08;72.56;100543.99;2092386;85;31121;-61
2021/08/10 04:36:41;;;;;;;15.65;5.53;;;;;;;15.18;72.59;100537.91;2093700;84;33043;-61
2021/08/10 04:39:43;;;;;;;13.00;6.05;;;;;;;15.29;72.51;100543.95;2053763;86;30529;-61
2021/08/10 04:42:46;;;;;;;14.15;6.75;;;;;;;15.40;72.45;100536.97;2137106;83;28266;-60
2021/08/10 04:45:48;;;;;;;17.10;7.00;;;;;;;15.50;72.40;100531.36;2049792;86;29234;-60
2021/08/10 04:48:52;;;;;;;14.40;7.03;;;;;;;15.63;72.58;100526.01;2126277;83;32290;-60
2021/08/10 04:51:54;;;;;;;23.60;7.70;;;;;;;15.78;72.29;100524.97;2126558;83;33856;-59
2021/08/10 04:54:57;;;;;;;17.62;6.78;;;;;;;15.95;72.18;100521.63;2126499;83;29933;-60
2021/08/10 04:57:59;;;;;;;12.50;6.47;;;;;;;16.10;71.99;100521.92;2126833;83;28107;-61
2021/08/10 05:01:08;;;;;;;17.15;7.55;;;;;;;16.29;71.83;100527.86;2126378;83;28772;-60
2021/08/10 05:04:12;;;;;;;12.37;6.37;;;;;;;16.78;72.13;100523.02;2096772;82;31922;-61
2021/08/10 05:07:16;;;;;;;10.55;5.47;;;;;;;17.64;71.87;100523.55;2024252;86;32961;-63
2021/08/10 05:10:19;;;;;;;15.18;6.10;;;;;;;18.43;70.79;100514.80;2087953;84;29335;-61
2021/08/10 05:13:22;;;;;;;12.98;6.50;;;;;;;19.16;69.80;100518.01;2100266;84;28048;-61
2021/08/10 05:16:28;;;;;;;16.12;6.10;;;;;;;19.76;68.68;100512.11;2094809;84;28715;-60
2021/08/10 05:19:29;;;;;;;15.78;6.70;;;;;;;20.23;67.15;100519.05;2087640;85;31728;-60
2021/08/10 05:22:32;;;;;;;13.40;5.97;;;;;;;20.58;66.60;100517.81;2091363;84;34317;-60
2021/08/10 05:25:34;;;;;;;15.93;4.75;;;;;;;20.90;65.53;100523.62;2094983;84;30585;-60
2021/08/10 05:28:37;;;;;;;10.68;5.70;;;;;;;21.19;65.34;100526.45;2136729;82;27877;-60
2021/08/10 05:31:39;;;;;;;18.77;5.15;;;;;;;21.50;64.89;100533.68;2008522;87;29553;-60
2021/08/10 05:34:41;;;;;;;10.82;4.12;;;;;;;21.80;63.85;100534.58;1990867;86;31523;-60
2021/08/10 05:37:43;;;;;;;11.75;5.47;;;;;;;22.09;63.78;100537.27;2066269;86;34246;-60
2021/08/10 05:40:45;;;;;;;14.23;5.42;;;;;;;22.38;63.11;100536.86;2021871;87;30185;-60
2021/08/10 05:43:48;;;;;;;12.65;6.72;;;;;;;22.64;62.20;100541.72;2052300;86;27733;-62
2021/08/10 05:46:51;;;;;;;12.53;5.78;;;;;;;22.87;61.54;100550.39;2082558;85;29698;-62
2021/08/10 05:49:53;;;;;;;14.83;5.53;;;;;;;23.06;61.17;100565.83;2090528;84;31028;-62
2021/08/10 05:52:56;;;;;;;11.63;4.92;;;;;;;23.32;60.77;100557.80;2090478;85;33782;-62
2021/08/10 05:56:00;;;;;;;8.58;5.03;;;;;;;23.72;60.43;100556.17;2097485;84;29321;-62
2021/08/10 05:59:02;;;;;;;12.75;4.40;;;;;;;24.05;59.41;100546.41;2018618;88;27878;-62
2021/08/10 06:02:10;;;;;;;10.40;4.47;;;;;;;24.43;59.05;100543.42;2042417;86;30119;-62
2021/08/10 06:05:15;;;;;;;12.47;4.72;;;;;;;24.63;58.24;100543.20;2050529;86;31462;-62
2021/08/10 06:08:17;;;;;;;9.83;4.25;;;;;;;24.86;57.75;100543.52;2050802;86;34169;-62
2021/08/10 06:11:20;;;;;;;11.40;4.22;;;;;;;25.14;57.07;100535.94;2051437;86;30518;-62
2021/08/10 06:14:22;;;;;;;11.28;4.08;;;;;;;25.54;56.51;100537.61;2050608;86;27717;-62
2021/08/10 06:17:25;;;;;;;8.83;3.52;;;;;;;25.99;55.70;100534.55;2015355;86;29393;-62
2021/08/10 06:20:27;;;;;;;5.45;3.37;;;;;;;26.41;54.79;100537.65;1977940;90;32223;-59
2021/08/10 06:23:29;;;;;;;9.68;3.30;;;;;;;26.64;53.53;100539.14;2011561;88;33492;-59
2021/08/10 06:26:31;;;;;;;7.80;3.50;;;;;;;26.87;53.28;100530.17;1987053;89;29720;-59
2021/08/10 06:29:33;;;;;;;6.12;3.22;;;;;;;27.23;52.80;100531.55;2032565;84;27678;-59
2021/08/10 06:32:36;;;;;;;8.55;3.33;;;;;;;27.65;51.96;100522.02;2092196;85;29942;-60
2021/08/10 06:35:38;;;;;;;12.28;3.37;;;;;;;27.89;50.92;100525.63;2088833;84;32093;-60
2021/08/10 06:38:40;;;;;;;8.18;3.33;;;;;;;28.17;51.04;100524.55;2114109;84;33374;-59
2021/08/10 06:41:42;;;;;;;8.58;3.33;;;;;;;28.52;49.91;100522.64;2115226;84;30270;-60
2021/08/10 06:44:44;;;;;;;8.00;3.15;;;;;;;28.69;49.11;100515.06;2035914;86;27668;-60
2021/08/10 06:47:49;;;;;;;7.15;3.30;;;;;;;28.89;48.60;100508.45;2083550;84;29881;-60
2021/08/10 06:50:49;;;;;;;7.17;3.45;;;;;;;29.10;47.79;100501.30;2083123;85;32242;-60
2021/08/10 06:53:51;;;;;;;9.65;4.30;;;;;;;29.23;47.38;100495.92;2083316;85;34122;-60
2021/08/10 06:56:53;;;;;;;12.55;3.98;;;;;;;29.53;47.26;100502.75;2086130;84;29692;-59
2021/08/10 06:59:58;;;;;;;14.40;3.27;;;;;;;29.77;46.17;100498.41;2073062;84;28203;-59
2021/08/10 07:03:00;;;;;;;14.43;4.42;;;;;;;29.81;45.31;100494.20;2098327;84;29857;-59
2021/08/10 07:06:02;;;;;;;7.22;3.37;;;;;;;29.99;45.03;100498.76;2101893;83;31943;-60
2021/08/10 07:09:05;;;;;;;7.15;3.27;;;;;;;30.27;44.96;100499.28;2105848;84;33374;-60
2021/08/10 07:12:08;;;;;;;17.95;3.90;;;;;;;30.50;44.81;100502.82;2103572;84;29316;-60
2021/08/10 07:15:10;;;;;;;19.37;4.15;;;;;;;30.82;44.01;100489.41;2100641;83;27904;-60
2021/08/10 07:18:12;;;;;;;10.80;3.33;;;;;;;31.08;43.00;100490.05;2099266;84;29823;-59
2021/08/10 07:21:14;;;;;;;4.95;3.08;;;;;;;31.45;43.40;100489.75;2090908;83;31892;-60
2021/08/10 07:24:16;;;;;;;4.42;2.75;;;;;;;31.86;42.76;100491.55;2090754;85;33547;-60
2021/08/10 07:27:19;;;;;;;8.38;3.02;;;;;;;31.82;41.26;100493.91;2091986;83;29406;-59
2021/08/10 07:30:23;;;;;;;4.70;2.80;;;;;;;31.74;41.16;100495.48;2090207;83;27717;-61
2021/08/10 07:33:28;;;;;;;4.92;2.90;;;;;;;31.90;41.30;100496.12;2092058;85;27772;-61
2021/08/10 07:36:30;;;;;;;;;;;;;;;32.11;41.02;100497.82;2098378;84;32308;-60
2021/08/10 07:39:32;;;;;;;11.40;3.10;;;;;;;32.30;40.45;100492.50;2097970;84;34238;-60
2021/08/10 07:42:34;;;;;;;7.22;3.00;;;;;;;32.47;40.24;100502.08;2104103;84;29849;-61
2021/08/10 07:45:39;;;;;;;9.85;3.00;;;;;;;32.77;38.91;100498.78;2102691;84;27616;-60
2021/08/10 07:48:40;;;;;;;6.12;2.95;;;;;;;32.79;39.47;100492.48;2085967;85;30150;-60
2021/08/10 07:51:43;;;;;;;7.17;3.00;;;;;;;32.86;39.45;100486.94;2086021;85;32424;-60
2021/08/10 07:54:45;;;;;;;9.20;2.72;;;;;;;33.20;38.94;100490.41;2100844;84;33134;-60
2021/08/10 07:57:47;;;;;;;4.92;2.70;;;;;;;33.50;38.23;100488.47;2097946;84;30530;-60
2021/08/10 08:00:48;;;;;;;6.95;2.80;;;;;;;33.68;37.62;100497.94;2098032;84;27730;-60
2021/08/10 08:03:50;;;;;;;8.20;2.80;;;;;;;33.60;37.82;100492.98;2100579;84;29906;-60
2021/08/10 08:06:52;;;;;;;5.15;2.30;;;;;;;33.52;36.99;100495.17;2106022;84;32197;-60
2021/08/10 08:09:54;;;;;;;7.97;2.75;;;;;;;33.38;37.70;100493.88;2105663;84;33173;-60
2021/08/10 08:12:56;;;;;;;4.37;2.60;;;;;;;33.42;37.43;100489.59;2112895;84;30631;-60
2021/08/10 08:15:59;;;;;;;8.43;2.60;;;;;;;33.30;37.28;100496.88;2018751;88;27720;-60
2021/08/10 08:19:01;;;;;;;6.17;2.70;;;;;;;33.21;36.88;100485.72;2017507;87;29898;-61
2021/08/10 08:22:04;;;;;;;5.45;2.40;;;;;;;33.29;37.59;100496.03;2054826;86;32368;-60
2021/08/10 08:25:07;;;;;;;3.80;2.20;;;;;;;33.43;37.07;100502.92;2058664;86;32515;-60
2021/08/10 08:28:10;;;;;;;6.60;2.60;;;;;;;33.55;36.65;100498.91;2015342;88;29347;-60
2021/08/10 08:31:13;;;;;;;6.47;2.72;;;;;;;33.46;36.79;100499.16;2081796;84;27721;-60
2021/08/10 08:34:16;;;;;;;7.22;2.60;;;;;;;33.44;36.53;100499.08;2063226;86;29591;-60
2021/08/10 08:37:17;;;;;;;8.37;2.23;;;;;;;33.38;35.89;100498.05;2065799;85;32247;-60
2021/08/10 08:40:19;;;;;;;5.15;2.42;;;;;;;33.34;36.33;100495.36;2074886;85;34220;-60
2021/08/10 08:43:22;;;;;;;6.50;2.27;;;;;;;33.47;36.73;100486.97;2051690;86;30525;-60
2021/08/10 08:46:24;;;;;;;7.15;2.55;;;;;;;33.54;36.29;100487.48;2051845;86;27677;-60
2021/08/10 08:49:26;;;;;;;3.33;2.12;;;;;;;33.71;36.16;100490.55;2050927;86;29186;-60
2021/08/10 08:52:31;;;;;;;4.90;2.55;;;;;;;33.62;35.72;100485.80;2085117;85;32277;-60
2021/08/10 08:55:34;;;;;;;2.85;2.40;;;;;;;33.59;35.55;100487.11;2086146;85;34118;-60
2021/08/10 08:58:36;;;;;;;4.75;2.80;;;;;;;33.41;35.03;100487.02;2065141;85;29400;-60
2021/08/10 09:01:39;;;;;;;6.55;2.58;;;;;;;33.12;35.28;100485.97;2033381;85;27762;-60
2021/08/10 09:04:41;;;;;;;5.70;2.17;;;;;;;33.11;35.92;100487.59;2018883;86;29147;-60
2021/08/10 09:07:42;;;;;;;5.55;2.70;;;;;;;33.20;35.65;100484.02;2011649;88;32340;-60
2021/08/10 09:10:55;;;;;;;4.47;2.37;;;;;;;33.11;35.11;100486.20;2026405;87;33557;-60
2021/08/10 09:14:03;;;;;;;5.75;2.42;;;;;;;32.91;34.74;100484.36;2027645;87;29328;-59
2021/08/10 09:17:12;;;;;;;4.62;2.35;;;;;;;32.75;34.66;100470.44;2028643;87;27760;-59
2021/08/10 09:20:21;;;;;;;6.65;2.80;;;;;;;32.86;35.42;100478.61;1992233;87;28673;-60
2021/08/10 09:23:52;;;;;;;4.03;2.10;;;;;;;32.91;35.01;100477.98;2022135;84;31739;-60
2021/08/10 09:26:55;;;;;;;3.83;2.52;;;;;;;32.81;34.49;100477.02;2098155;84;33882;-60
2021/08/10 09:30:01;;;;;;;4.55;1.90;;;;;;;32.72;34.86;100475.86;2061687;84;29708;-60
2021/08/10 09:33:07;;;;;;;2.05;1.47;;;;;;;32.70;34.92;100470.23;2060392;85;27710;-59
2021/08/10 09:36:21;;;;;;;5.37;1.92;;;;;;;32.63;33.70;100463.84;2059439;85;28667;-59
2021/08/10 09:39:34;;;;;;;2.75;1.80;;;;;;;32.61;33.83;100458.52;2063647;85;31123;-59
2021/08/10 09:42:37;;;;;;;2.80;2.00;;;;;;;32.66;34.05;100455.09;2094183;85;33848;-59
2021/08/10 09:45:40;;;;;;;2.87;1.60;;;;;;;32.65;33.85;100452.86;2093926;84;30207;-59
2021/08/10 09:48:53;;;;;;;2.30;2.10;;;;;;;32.61;33.80;100454.36;2094867;85;27586;-59
2021/08/10 09:51:55;;;;;;;6.65;2.40;;;;;;;32.50;33.73;100446.73;2058984;85;28525;-60
2021/08/10 09:55:13;;;;;;;3.75;2.00;;;;;;;32.50;33.26;100431.48;2057808;85;32352;-60
2021/08/10 09:58:15;;;;;;;3.02;1.75;;;;;;;32.40;33.70;100429.16;2058235;86;33207;-60
2021/08/10 10:01:33;;;;;;;6.83;2.58;;;;;;;32.36;33.36;100426.49;2082835;85;30535;-59
2021/08/10 10:04:35;;;;;;;2.42;2.10;;;;;;;32.26;33.75;100428.33;2077310;85;27625;-59
2021/08/10 10:07:37;;;;;;;3.02;1.82;;;;;;;32.21;33.55;100418.38;2021280;88;29540;-59
2021/08/10 10:10:39;;;;;;;4.28;2.22;;;;;;;32.08;32.60;100413.74;2061525;85;32264;-59
2021/08/10 10:13:41;;;;;;;3.65;1.98;;;;;;;32.11;33.36;100418.31;2084880;85;34178;-59
2021/08/10 10:16:48;;;;;;;5.42;2.10;;;;;;;32.04;32.92;100405.53;2084893;85;30564;-60
2021/08/10 10:19:50;;;;;;;2.02;1.82;;;;;;;32.04;33.65;100407.75;2079303;85;27693;-59
2021/08/10 10:22:52;;;;;;;3.55;1.80;;;;;;;32.08;32.92;100398.50;2084903;85;29744;-59
2021/08/10 10:25:55;;;;;;;3.47;1.35;;;;;;;31.87;32.87;100396.28;2084896;85;32279;-60
2021/08/10 10:28:58;;;;;;;1.35;1.20;;;;;;;31.74;32.65;100389.37;2084841;85;33937;-59
2021/08/10 10:32:02;;;;;;;2.58;1.70;;;;;;;31.59;32.66;100386.27;2036575;85;30136;-59
2021/08/10 10:35:04;;;;;;;;;;;;;;;31.58;33.00;100374.88;2030507;86;27746;-60
2021/08/10 10:38:07;;;;;;;1.82;1.40;;;;;;;31.43;32.46;100370.92;2025957;86;29104;-59
2021/08/10 10:41:10;;;;;;;3.60;1.82;;;;;;;31.39;33.26;100370.18;2075698;84;31539;-59
2021/08/10 10:44:13;;;;;;;1.60;1.50;;;;;;;31.33;33.07;100376.04;2090641;85;57820;-59
2021/08/10 10:47:29;;;;;;;4.50;1.50;;;;;;;31.21;33.37;100372.48;2090706;85;29763;-60
2021/08/10 10:50:30;;;;;;;6.17;1.50;;;;;;;31.15;32.17;100371.10;2091831;84;27741;-60
2021/08/10 10:53:32;;;;;;;5.67;1.75;;;;;;;30.97;32.31;100368.38;2094342;85;28594;-58
2021/08/10 10:56:37;;;;;;;1.70;1.52;;;;;;;30.80;33.06;100362.91;2093638;84;31446;-59
2021/08/10 10:59:39;;;;;;;4.83;1.82;;;;;;;30.97;33.06;100367.54;2090678;85;33507;-60
2021/08/10 11:02:42;;;;;;;2.62;1.80;;;;;;;31.08;32.91;100366.91;2106983;84;30179;-59
2021/08/10 11:05:45;;;;;;;3.83;1.62;;;;;;;31.31;33.80;100362.94;2108841;84;27723;-59
2021/08/10 11:08:47;;;;;;;2.07;1.60;;;;;;;31.52;33.61;100356.33;2092502;84;29505;-60
2021/08/10 11:11:55;;;;;;;1.50;1.40;;;;;;;31.68;33.25;100350.90;2091269;85;32204;-59
2021/08/10 11:14:57;;;;;;;1.60;1.30;;;;;;;31.69;32.07;100338.72;2091458;85;33122;-60
2021/08/10 11:18:14;;;;;;;4.20;1.57;;;;;;;31.67;32.75;100329.80;2101663;84;30266;-60
2021/08/10 11:21:20;;;;;;;3.02;1.42;;;;;;;31.72;32.37;100319.48;2108705;84;27703;-60
2021/08/10 11:24:34;;;;;;;3.30;1.55;;;;;;;31.66;31.74;100315.64;2108653;84;28627;-59
2021/08/10 11:27:44;;;;;;;5.05;1.50;;;;;;;31.63;31.64;100322.44;2098961;84;31938;-61
2021/08/10 11:30:47;;;;;;;3.42;1.60;;;;;;;31.63;31.67;100316.06;2090476;85;33879;-60
2021/08/10 11:33:49;;;;;;;4.00;1.67;;;;;;;31.63;31.37;100319.67;2088008;85;29739;-60
2021/08/10 11:37:19;;;;;;;2.95;1.52;;;;;;;31.41;30.96;100305.21;2099475;83;28105;-59
2021/08/10 11:40:22;;;;;;;1.72;1.20;;;;;;;31.30;31.90;100310.02;2100373;84;29558;-61
2021/08/10 11:43:45;;;;;;;2.70;1.57;;;;;;;31.15;32.02;100311.60;2100326;84;31533;-60
2021/08/10 11:46:50;;;;;;;3.40;1.43;;;;;;;31.04;32.60;100297.31;2099797;84;34215;-60
2021/08/10 11:49:55;;;;;;;5.33;1.52;;;;;;;30.82;31.35;100286.11;2100753;84;29711;-60
2021/08/10 11:52:57;;;;;;;2.00;1.80;;;;;;;30.64;32.42;100282.58;2100334;84;28301;-60
2021/08/10 11:55:59;;;;;;;5.05;1.70;;;;;;;30.63;32.24;100268.42;2100452;84;29528;-60
2021/08/10 11:59:10;;;;;;;1.57;1.47;;;;;;;30.61;32.32;100267.27;2099674;84;32259;-61
2021/08/10 12:02:12;;;;;;;4.87;1.67;;;;;;;30.66;32.92;100259.17;2100845;84;33100;-60
2021/08/10 12:05:14;;;;;;;3.80;1.75;;;;;;;30.68;32.63;100249.30;2100512;84;30160;-60
2021/08/10 12:08:16;;;;;;;2.00;1.50;;;;;;;30.59;32.87;100248.10;2086439;84;28396;-60
2021/08/10 12:11:27;;;;;;;6.17;1.95;;;;;;;30.53;32.63;100232.85;2095737;84;29934;-60
2021/08/10 12:14:30;;;;;;;3.55;1.70;;;;;;;30.36;32.74;100228.26;2090935;85;31223;-60
2021/08/10 12:17:32;;;;;;;3.27;1.82;;;;;;;30.14;32.36;100219.56;2095124;83;32942;-60
2021/08/10 12:20:35;;;;;;;4.55;1.85;;;;;;;29.99;33.27;100215.59;2099881;84;29694;-60
2021/08/10 12:23:43;;;;;;;3.37;2.42;;;;;;;29.85;33.37;100213.81;2099559;84;27722;-60
2021/08/10 12:26:50;;;;;;;3.62;1.47;;;;;;;29.79;32.42;100213.24;2099927;83;29139;-60
2021/08/10 12:29:52;;;;;;;2.42;1.70;;;;;;;29.59;33.41;100213.15;2090666;83;31032;-60
2021/08/10 12:32:54;;;;;;;4.28;2.00;;;;;;;29.50;33.52;100203.64;2114177;83;34251;-60
2021/08/10 12:36:07;;;;;;;2.80;1.95;;;;;;;29.45;33.84;100211.70;2129550;83;29365;-59
2021/08/10 12:39:09;;;;;;;2.00;1.50;;;;;;;29.41;33.90;100210.39;2136148;83;27773;-65
2021/08/10 12:42:12;;;;;;;3.12;1.65;;;;;;;29.32;34.24;100208.80;2125697;83;29181;-66
2021/08/10 12:45:13;;;;;;;4.47;1.90;;;;;;;29.26;34.19;100206.32;2117919;82;31025;-64
2021/08/10 12:48:33;;;;;;;5.28;4.78;;;;;;;29.20;34.51;100204.39;2073869;85;32959;-64
2021/08/10 12:52:00;;;;;;;5.25;1.70;;;;;;;29.28;34.51;100195.10;2080576;83;30438;-63
2021/08/10 12:55:02;;;;;;;3.17;1.92;;;;;;;29.38;34.46;100187.33;2076090;85;27718;-64
2021/08/10 12:58:04;;;;;;;3.22;1.98;;;;;;;29.34;33.96;100183.23;2076791;83;29912;-65
2021/08/10 13:01:06;;;;;;;5.85;1.80;;;;;;;29.30;34.45;100173.14;2070296;85;33205;-65
2021/08/10 13:04:11;;;;;;;6.80;1.87;;;;;;;29.18;34.24;100174.77;2093902;84;33477;-64
2021/08/10 13:07:15;;;;;;;7.78;1.47;;;;;;;29.06;34.56;100173.92;2094797;83;29500;-66
2021/08/10 13:10:20;;;;;;;3.85;1.82;;;;;;;28.99;34.68;100159.77;2106603;83;27793;-66
2021/08/10 13:13:28;;;;;;;2.08;1.70;;;;;;;28.92;34.85;100159.21;2108918;83;29415;-67
2021/08/10 13:16:36;;;;;;;4.05;1.70;;;;;;;28.85;34.84;100156.08;2075822;85;31860;-67
2021/08/10 13:19:37;;;;;;;4.60;1.90;;;;;;;28.83;34.97;100147.98;2090781;85;32956;-65
2021/08/10 13:22:46;;;;;;;6.00;2.00;;;;;;;28.86;35.04;100144.83;2094309;84;29377;-64
2021/08/10 13:26:00;;;;;;;1.85;1.55;;;;;;;28.94;34.52;100149.34;2089673;85;28235;-65
2021/08/10 13:29:02;;;;;;;3.37;2.20;;;;;;;29.01;34.94;100144.73;2074049;85;29329;-65
2021/08/10 13:32:05;;;;;;;4.50;1.82;;;;;;;29.08;35.00;100144.23;2054177;86;31034;-65
2021/08/10 13:35:07;;;;;;;8.45;2.12;;;;;;;29.16;35.17;100146.53;1985940;87;33042;-61
2021/08/10 13:38:10;;;;;;;6.95;1.98;;;;;;;29.17;34.65;100138.58;2029650;86;30588;-61
2021/08/10 13:41:13;;;;;;;3.17;1.80;;;;;;;29.00;34.59;100141.66;2040647;86;27618;-61
2021/08/10 13:44:15;;;;;;;4.10;1.90;;;;;;;28.89;34.75;100138.05;2044634;86;29057;-72
2021/08/10 13:47:17;;;;;;;5.78;1.92;;;;;;;28.88;34.92;100141.34;1990254;88;30524;-75
2021/08/10 13:50:19;;;;;;;3.77;1.72;;;;;;;28.91;35.05;100131.81;2053630;86;33738;-66
2021/08/10 13:53:22;;;;;;;6.12;3.37;;;;;;;28.98;34.83;100131.86;2039898;87;30231;-75
2021/08/10 13:56:28;;;;;;;5.10;2.60;;;;;;;29.03;35.03;100140.39;1989291;88;29343;-77
2021/08/10 13:59:30;;;;;;;3.08;2.10;;;;;;;29.06;34.78;100146.88;2063811;85;29444;-70
2021/08/10 14:02:36;;;;;;;30.10;4.33;;;;;;;29.08;34.84;100158.57;2103870;83;30780;-68
2021/08/10 14:05:37;;;;;;;6.60;2.25;;;;;;;28.98;35.03;100184.26;2078619;83;33119;-59
2021/08/10 14:08:40;;;;;;;20.20;2.33;;;;;;;28.61;35.61;100182.98;2071250;85;29358;-60
2021/08/10 14:11:41;;;;;;;13.70;2.15;;;;;;;28.14;36.26;100215.04;2054548;86;27625;-59
2021/08/10 14:14:44;;;;;;;11.35;2.05;;;;;;;27.64;37.15;100234.05;2035476;86;28594;-60
2021/08/10 14:17:47;;;;;;;5.10;1.90;;;;;;;27.07;37.92;100247.36;2049004;86;31721;-60